Time;durP1;ratioP1;P1;durP2;ratioP2;P2;SDS_P1;SDS_P2;PMS_P1;PMS_P2;Temp;Humidity;BMP_temperature;BMP_pressure;BME280_temperature;BME280_humidity;BME280_pressure;Samples;Min_cycle;Max_cycle;Signal;HPM_P1;HPM_P2
2022/07/10 00:01:32;;;;;;;1.05;0.52;;;20.90;64.10;;;;;;5018550;28;20038;-74
2022/07/10 00:03:59;;;;;;;2.22;0.15;;;20.90;64.30;;;;;;5017436;28;20050;-74
2022/07/10 00:06:27;;;;;;;0.75;0.20;;;20.90;64.40;;;;;;5017901;28;20433;-74
2022/07/10 00:08:55;;;;;;;0.93;0.20;;;20.90;64.40;;;;;;5017463;28;20045;-74
2022/07/10 00:11:22;;;;;;;0.63;0.10;;;20.90;64.40;;;;;;5020946;28;20049;-75
2022/07/10 00:13:49;;;;;;;0.75;0.20;;;20.90;64.60;;;;;;5020369;28;20049;-74
2022/07/10 00:16:16;;;;;;;0.50;0.20;;;20.80;64.50;;;;;;5021168;28;20037;-74
2022/07/10 00:18:43;;;;;;;0.35;0.10;;;20.70;65.00;;;;;;5024272;28;20060;-74
2022/07/10 00:21:11;;;;;;;1.08;0.20;;;20.70;65.30;;;;;;5026681;28;20046;-74
2022/07/10 00:23:38;;;;;;;1.95;0.10;;;20.80;65.60;;;;;;5023923;28;20081;-75
2022/07/10 00:26:05;;;;;;;0.68;0.13;;;20.70;65.80;;;;;;5019459;28;20388;-74
2022/07/10 00:28:32;;;;;;;0.63;0.20;;;20.60;66.10;;;;;;5017182;28;20092;-75
2022/07/10 00:30:59;;;;;;;0.40;0.20;;;20.70;66.20;;;;;;5024751;28;20124;-75
2022/07/10 00:33:27;;;;;;;0.73;0.20;;;20.80;66.30;;;;;;5018694;28;20119;-75
2022/07/10 00:35:54;;;;;;;1.05;0.13;;;20.70;66.60;;;;;;5026265;28;20076;-75
2022/07/10 00:38:21;;;;;;;0.20;0.10;;;20.70;66.90;;;;;;5026604;28;20041;-74
2022/07/10 00:40:48;;;;;;;1.83;0.20;;;20.60;67.50;;;;;;5023722;28;20073;-75
2022/07/10 00:43:16;;;;;;;2.28;0.20;;;20.50;68.00;;;;;;5022822;28;20050;-74
2022/07/10 00:45:43;;;;;;;1.38;0.20;;;20.60;68.20;;;;;;5036076;28;20380;-74
2022/07/10 00:48:10;;;;;;;1.42;0.20;;;20.50;68.70;;;;;;5022624;28;20041;-75
2022/07/10 00:50:38;;;;;;;0.90;0.10;;;20.50;68.80;;;;;;5019386;28;20149;-74
2022/07/10 00:53:05;;;;;;;0.63;0.28;;;20.50;69.10;;;;;;5034947;28;20046;-75
2022/07/10 00:55:35;;;;;;;0.45;0.20;;;20.50;69.50;;;;;;5024818;28;20632;-74
2022/07/10 00:58:05;;;;;;;0.65;0.15;;;20.40;69.80;;;;;;5035122;28;20050;-75
2022/07/10 01:00:33;;;;;;;0.40;0.20;;;20.40;70.30;;;;;;5020229;28;20041;-75
2022/07/10 01:03:00;;;;;;;1.27;0.30;;;20.50;70.60;;;;;;5022885;28;20041;-75
2022/07/10 01:05:27;;;;;;;0.50;0.20;;;20.40;71.20;;;;;;5023022;28;21047;-74
2022/07/10 01:07:54;;;;;;;1.15;0.20;;;20.40;72.30;;;;;;5022146;28;20500;-74
2022/07/10 01:10:21;;;;;;;1.27;0.10;;;20.30;71.90;;;;;;5022855;28;20416;-74
2022/07/10 01:12:48;;;;;;;0.40;0.10;;;20.40;72.10;;;;;;5022439;28;20045;-74
2022/07/10 01:15:16;;;;;;;0.30;0.20;;;20.30;72.20;;;;;;5009927;28;20041;-75
2022/07/10 01:17:43;;;;;;;1.35;0.20;;;20.30;72.30;;;;;;5037302;28;20045;-75
2022/07/10 01:20:10;;;;;;;0.50;0.20;;;20.40;72.30;;;;;;5024243;28;20677;-75
2022/07/10 01:22:38;;;;;;;0.52;0.20;;;20.40;72.50;;;;;;5022760;28;20046;-74
2022/07/10 01:25:06;;;;;;;1.50;0.13;;;20.30;72.60;;;;;;5019496;28;20515;-75
2022/07/10 01:27:33;;;;;;;2.05;0.20;;;20.20;72.90;;;;;;5037674;28;20045;-75
2022/07/10 01:30:00;;;;;;;1.08;0.20;;;20.10;73.30;;;;;;5023451;28;20087;-75
2022/07/10 01:32:37;;;;;;;0.70;0.20;;;20.20;73.60;;;;;;5024485;28;20400;-75
2022/07/10 01:35:05;;;;;;;0.30;0.25;;;20.00;73.90;;;;;;5021611;28;20068;-75
2022/07/10 01:37:32;;;;;;;0.40;0.20;;;20.10;74.10;;;;;;5025865;28;20115;-75
2022/07/10 01:39:59;;;;;;;0.80;0.30;;;20.10;74.30;;;;;;5025252;28;20112;-75
2022/07/10 01:42:27;;;;;;;1.38;0.25;;;20.10;74.30;;;;;;5022143;28;20435;-74
2022/07/10 01:44:54;;;;;;;1.00;0.13;;;20.10;74.30;;;;;;5018247;28;21613;-74
2022/07/10 01:47:25;;;;;;;0.60;0.20;;;20.10;74.40;;;;;;5005022;28;20050;-75
2022/07/10 01:49:53;;;;;;;0.98;0.20;;;20.10;74.40;;;;;;5024179;28;20042;-75
2022/07/10 01:52:21;;;;;;;1.00;0.22;;;20.10;74.30;;;;;;5021612;28;20492;-75
2022/07/10 01:54:48;;;;;;;0.77;0.30;;;20.10;74.60;;;;;;5023163;28;20124;-75
2022/07/10 01:57:15;;;;;;;1.17;0.30;;;20.10;74.70;;;;;;5020570;28;20041;-74
2022/07/10 01:59:42;;;;;;;0.30;0.10;;;20.00;75.00;;;;;;5022480;28;20378;-74
2022/07/10 02:02:10;;;;;;;0.88;0.30;;;20.00;75.20;;;;;;5023223;28;20045;-74
2022/07/10 02:04:43;;;;;;;0.50;0.20;;;20.00;75.10;;;;;;5022649;28;20060;-74
2022/07/10 02:07:12;;;;;;;0.50;0.20;;;20.00;75.10;;;;;;5009399;28;20073;-75
2022/07/10 02:09:40;;;;;;;0.47;0.30;;;20.10;75.20;;;;;;5039260;28;20045;-75
2022/07/10 02:12:09;;;;;;;0.70;0.20;;;20.00;75.50;;;;;;5015816;28;20056;-74
2022/07/10 02:14:37;;;;;;;0.38;0.20;;;20.00;75.70;;;;;;5023020;28;20065;-75
2022/07/10 02:17:05;;;;;;;0.60;0.10;;;19.80;76.10;;;;;;5009824;28;20049;-75
2022/07/10 02:19:32;;;;;;;0.70;0.15;;;19.60;77.20;;;;;;5021087;28;20167;-75
2022/07/10 02:22:00;;;;;;;0.50;0.20;;;19.60;77.70;;;;;;5022479;28;20396;-77
2022/07/10 02:24:27;;;;;;;1.25;0.73;;;19.70;77.50;;;;;;5022787;28;20056;-75
2022/07/10 02:26:55;;;;;;;0.50;0.20;;;19.60;77.80;;;;;;5022389;28;20041;-75
2022/07/10 02:29:25;;;;;;;0.52;0.20;;;19.60;78.00;;;;;;5022441;28;20101;-75
2022/07/10 02:31:52;;;;;;;0.82;0.30;;;19.70;78.00;;;;;;5020673;28;20154;-75
2022/07/10 02:34:19;;;;;;;0.60;0.30;;;19.70;77.90;;;;;;5021100;28;20034;-75
2022/07/10 02:36:46;;;;;;;0.57;0.10;;;19.60;78.20;;;;;;5022806;28;20528;-74
2022/07/10 02:39:13;;;;;;;0.40;0.20;;;19.60;78.50;;;;;;5024123;28;20045;-75
2022/07/10 02:41:41;;;;;;;0.63;0.10;;;19.60;78.80;;;;;;5021644;28;20136;-74
2022/07/10 02:44:08;;;;;;;0.47;0.20;;;19.60;78.80;;;;;;5002903;28;20093;-74
2022/07/10 02:46:35;;;;;;;0.50;0.20;;;19.70;79.00;;;;;;5020926;28;20045;-74
2022/07/10 02:49:04;;;;;;;0.35;0.20;;;19.60;79.00;;;;;;5023466;28;20058;-73
2022/07/10 02:51:31;;;;;;;1.25;0.20;;;19.60;79.00;;;;;;5021253;28;20050;-74
2022/07/10 02:53:58;;;;;;;1.95;0.20;;;19.50;79.60;;;;;;5038008;28;20044;-74
2022/07/10 02:56:25;;;;;;;2.75;0.30;;;19.50;79.80;;;;;;5022145;28;20064;-74
2022/07/10 02:58:53;;;;;;;1.08;0.20;;;19.50;80.10;;;;;;5021532;28;20110;-75
2022/07/10 03:01:20;;;;;;;1.50;0.20;;;19.30;80.50;;;;;;5020470;28;20497;-75
2022/07/10 03:03:47;;;;;;;1.33;0.20;;;19.40;80.60;;;;;;5021392;28;20467;-75
2022/07/10 03:06:14;;;;;;;0.68;0.32;;;19.50;80.70;;;;;;5015758;28;20053;-74
2022/07/10 03:08:41;;;;;;;0.93;0.20;;;19.40;80.60;;;;;;5020002;28;20048;-74
2022/07/10 03:11:09;;;;;;;0.63;0.30;;;19.30;81.30;;;;;;5018661;28;20366;-74
2022/07/10 03:13:36;;;;;;;0.70;0.20;;;19.40;81.40;;;;;;5021618;28;20049;-74
2022/07/10 03:16:03;;;;;;;2.05;0.30;;;19.30;81.90;;;;;;5019517;28;20115;-74
2022/07/10 03:18:30;;;;;;;0.50;0.20;;;19.10;83.30;;;;;;5016378;28;20034;-75
2022/07/10 03:20:58;;;;;;;0.77;0.30;;;19.00;84.00;;;;;;5022392;28;20042;-75
2022/07/10 03:23:25;;;;;;;4.25;1.00;;;19.10;84.10;;;;;;5034143;28;20052;-74
2022/07/10 03:25:53;;;;;;;1.48;0.43;;;19.20;83.80;;;;;;5019415;28;20074;-73
2022/07/10 03:28:21;;;;;;;0.80;0.32;;;19.10;84.10;;;;;;5021929;28;20029;-74
2022/07/10 03:30:48;;;;;;;2.85;0.30;;;19.00;84.70;;;;;;5017866;28;20061;-74
2022/07/10 03:33:15;;;;;;;0.50;0.22;;;18.90;85.40;;;;;;5013378;28;20038;-74
2022/07/10 03:35:42;;;;;;;0.70;0.20;;;19.00;85.80;;;;;;5019919;28;20046;-74
2022/07/10 03:38:09;;;;;;;1.65;0.30;;;19.10;85.80;;;;;;5035428;28;20127;-74
2022/07/10 03:40:36;;;;;;;1.73;0.30;;;19.10;85.60;;;;;;5020411;28;20041;-74
2022/07/10 03:43:03;;;;;;;0.60;0.30;;;19.00;85.90;;;;;;5021626;28;20137;-74
2022/07/10 03:45:30;;;;;;;1.27;0.50;;;18.90;86.80;;;;;;5021084;28;20041;-74
2022/07/10 03:47:57;;;;;;;0.88;0.32;;;18.90;87.30;;;;;;5020163;28;20523;-75
2022/07/10 03:50:25;;;;;;;0.63;0.30;;;18.90;87.60;;;;;;5022380;28;20049;-75
2022/07/10 03:52:52;;;;;;;1.30;0.47;;;18.80;88.00;;;;;;5022940;28;20049;-75
2022/07/10 03:55:19;;;;;;;1.58;0.50;;;18.80;88.60;;;;;;5019795;28;20029;-75
2022/07/10 03:58:02;;;;;;;1.02;0.30;;;18.80;88.90;;;;;;5020307;28;20427;-74
2022/07/10 04:00:32;;;;;;;0.68;0.40;;;18.80;89.30;;;;;;5021438;28;20045;-75
2022/07/10 04:03:03;;;;;;;1.65;0.50;;;18.70;89.90;;;;;;5020301;28;20443;-76
2022/07/10 04:05:31;;;;;;;1.07;0.50;;;18.70;90.00;;;;;;5021707;28;20045;-75
2022/07/10 04:08:00;;;;;;;1.67;0.32;;;18.80;90.10;;;;;;5033977;28;20103;-75
2022/07/10 04:10:29;;;;;;;1.63;0.60;;;18.80;90.10;;;;;;5017184;28;20704;-74
2022/07/10 04:12:57;;;;;;;0.95;0.30;;;18.70;90.20;;;;;;5036759;28;20556;-75
2022/07/10 04:15:24;;;;;;;0.88;0.40;;;18.90;90.10;;;;;;5022115;28;20061;-75
2022/07/10 04:17:52;;;;;;;1.35;0.32;;;18.90;89.80;;;;;;5019375;28;20657;-74
2022/07/10 04:20:20;;;;;;;1.80;0.60;;;18.90;90.00;;;;;;5038511;28;20038;-75
2022/07/10 04:22:47;;;;;;;2.15;0.80;;;18.90;90.10;;;;;;5021135;28;20053;-74
2022/07/10 04:25:14;;;;;;;1.13;0.68;;;18.90;90.20;;;;;;5020860;28;20045;-75
2022/07/10 04:27:41;;;;;;;1.10;0.50;;;19.00;89.90;;;;;;5018802;28;20045;-74
2022/07/10 04:30:09;;;;;;;0.88;0.30;;;19.10;89.50;;;;;;5020457;28;20049;-75
2022/07/10 04:32:36;;;;;;;0.70;0.30;;;19.20;89.30;;;;;;5021523;28;20129;-74
2022/07/10 04:35:04;;;;;;;2.90;0.50;;;19.30;88.90;;;;;;5021541;28;20052;-74
2022/07/10 04:37:31;;;;;;;1.58;0.40;;;19.30;88.50;;;;;;5021828;28;20048;-74
2022/07/10 04:39:58;;;;;;;3.38;0.60;;;19.50;88.20;;;;;;5035205;28;22527;-74
2022/07/10 04:42:25;;;;;;;0.60;0.28;;;19.60;87.60;;;;;;5021232;28;20456;-75
2022/07/10 04:44:53;;;;;;;1.42;0.50;;;19.60;87.00;;;;;;5022912;28;20144;-74
2022/07/10 04:47:20;;;;;;;1.27;0.30;;;19.60;87.20;;;;;;5018591;28;20044;-75
2022/07/10 04:49:47;;;;;;;2.10;0.60;;;19.80;86.90;;;;;;5021017;28;20056;-75
2022/07/10 04:52:15;;;;;;;1.50;0.45;;;19.80;86.10;;;;;;5020630;28;20045;-74
2022/07/10 04:54:42;;;;;;;1.02;0.40;;;19.90;86.30;;;;;;5020656;28;20087;-74
2022/07/10 04:57:09;;;;;;;1.83;0.60;;;20.00;85.50;;;;;;5032513;28;20042;-73
2022/07/10 04:59:36;;;;;;;1.10;0.50;;;19.90;85.10;;;;;;5021141;28;20049;-74
2022/07/10 05:02:04;;;;;;;1.33;0.40;;;20.00;85.20;;;;;;5018484;28;20049;-74
2022/07/10 05:04:31;;;;;;;0.68;0.30;;;20.10;85.20;;;;;;5020785;28;20526;-73
2022/07/10 05:06:58;;;;;;;1.08;0.50;;;20.20;84.10;;;;;;5002794;28;20056;-74
2022/07/10 05:09:25;;;;;;;1.30;0.55;;;20.20;83.10;;;;;;5000767;28;22326;-74
2022/07/10 05:11:53;;;;;;;1.13;0.32;;;20.40;83.50;;;;;;5006292;28;22465;-74
2022/07/10 05:14:21;;;;;;;0.98;0.40;;;20.60;83.30;;;;;;5000388;28;20147;-75
2022/07/10 05:16:48;;;;;;;0.85;0.32;;;20.50;82.20;;;;;;5003091;28;20049;-74
2022/07/10 05:19:15;;;;;;;0.90;0.38;;;20.60;82.10;;;;;;5001374;28;20057;-74
2022/07/10 05:21:42;;;;;;;1.10;0.38;;;20.80;81.60;;;;;;4989995;28;21205;-74
2022/07/10 05:24:09;;;;;;;2.25;0.50;;;20.90;80.80;;;;;;4993891;28;20058;-73
2022/07/10 05:26:36;;;;;;;1.02;0.43;;;20.90;80.40;;;;;;4993457;28;20061;-74
2022/07/10 05:29:03;;;;;;;0.73;0.40;;;21.00;80.60;;;;;;4999869;28;20056;-73
2022/07/10 05:31:30;;;;;;;0.95;0.40;;;21.20;80.00;;;;;;5002804;28;20045;-74
2022/07/10 05:33:58;;;;;;;1.73;0.73;;;21.40;79.30;;;;;;5007740;28;20049;-75
2022/07/10 05:36:25;;;;;;;1.17;0.40;;;21.10;78.80;;;;;;5008049;28;20048;-75
2022/07/10 05:38:52;;;;;;;1.25;0.30;;;21.20;79.80;;;;;;5009160;28;20064;-74
2022/07/10 05:41:19;;;;;;;1.02;0.50;;;21.40;78.60;;;;;;5001979;28;20114;-74
2022/07/10 05:43:46;;;;;;;1.13;0.40;;;21.50;77.60;;;;;;5004890;28;20058;-74
2022/07/10 05:46:13;;;;;;;1.17;0.40;;;21.70;77.00;;;;;;5016534;28;21054;-75
2022/07/10 05:48:40;;;;;;;1.00;0.40;;;21.80;76.20;;;;;;5009926;28;20045;-74
2022/07/10 05:51:08;;;;;;;1.75;0.57;;;21.70;75.60;;;;;;5011643;28;20428;-74
2022/07/10 05:53:55;;;;;;;1.15;0.45;;;22.00;76.20;;;;;;5003395;28;20056;-74
2022/07/10 05:56:23;;;;;;;1.40;0.50;;;22.10;74.60;;;;;;5005237;28;20050;-74
2022/07/10 05:58:50;;;;;;;2.05;0.40;;;22.20;74.10;;;;;;4991522;28;22075;-74
2022/07/10 06:01:17;;;;;;;2.03;0.45;;;22.30;74.70;;;;;;5004003;28;20041;-74
2022/07/10 06:03:45;;;;;;;2.75;0.50;;;22.30;74.10;;;;;;4999770;28;20049;-75
2022/07/10 06:06:15;;;;;;;1.08;0.40;;;22.20;73.30;;;;;;5006513;28;20049;-74
2022/07/10 06:08:44;;;;;;;0.70;0.38;;;22.20;74.30;;;;;;5008993;28;20050;-74
2022/07/10 06:11:11;;;;;;;1.48;0.40;;;22.40;72.80;;;;;;5001403;28;20041;-74
2022/07/10 06:13:39;;;;;;;0.77;0.40;;;22.60;71.60;;;;;;5007854;28;20111;-73
2022/07/10 06:16:06;;;;;;;0.95;0.40;;;22.50;71.90;;;;;;4999946;28;20061;-74
2022/07/10 06:18:33;;;;;;;0.90;0.63;;;22.70;71.90;;;;;;5005749;28;20068;-76
2022/07/10 06:21:01;;;;;;;0.90;0.50;;;23.00;70.80;;;;;;5007256;28;22474;-74
2022/07/10 06:23:30;;;;;;;2.45;0.50;;;22.90;69.50;;;;;;5013189;28;20053;-75
2022/07/10 06:25:57;;;;;;;2.05;0.50;;;22.70;69.00;;;;;;5010045;28;20863;-76
2022/07/10 06:28:24;;;;;;;0.80;0.45;;;22.70;68.50;;;;;;5008855;28;20054;-76
2022/07/10 06:30:52;;;;;;;1.45;0.73;;;22.70;68.00;;;;;;5006088;28;20049;-74
2022/07/10 06:33:26;;;;;;;1.65;0.60;;;23.10;67.80;;;;;;4991573;28;20089;-75
2022/07/10 06:35:53;;;;;;;1.83;0.50;;;23.00;66.40;;;;;;5013618;28;22403;-77
2022/07/10 06:38:20;;;;;;;1.75;0.70;;;22.90;67.60;;;;;;5014660;28;20046;-76
2022/07/10 06:40:47;;;;;;;2.10;0.80;;;22.80;68.10;;;;;;5013024;28;20099;-74
2022/07/10 06:43:14;;;;;;;1.45;0.82;;;22.70;67.60;;;;;;5000978;28;20560;-75
2022/07/10 06:45:42;;;;;;;2.10;0.80;;;22.90;66.90;;;;;;5008506;28;20053;-74
2022/07/10 06:48:09;;;;;;;0.82;0.40;;;23.30;66.80;;;;;;5020042;28;20051;-74
2022/07/10 06:50:37;;;;;;;4.43;0.50;;;23.50;66.80;;;;;;5015661;28;20577;-75
2022/07/10 06:53:05;;;;;;;1.55;0.75;;;23.50;66.10;;;;;;4990528;28;20049;-73
2022/07/10 06:55:33;;;;;;;1.45;0.70;;;23.40;66.10;;;;;;5014651;28;20980;-73
2022/07/10 06:58:01;;;;;;;3.25;0.77;;;23.50;65.60;;;;;;5003112;28;20056;-74
2022/07/10 07:00:28;;;;;;;1.90;0.80;;;23.60;65.40;;;;;;5010914;28;20965;-74
2022/07/10 07:02:55;;;;;;;2.67;0.80;;;23.30;65.00;;;;;;5015233;28;20049;-77
2022/07/10 07:05:23;;;;;;;1.27;0.70;;;23.50;64.60;;;;;;5006942;28;22258;-73
2022/07/10 07:07:50;;;;;;;3.90;0.70;;;23.60;64.80;;;;;;5013376;28;22482;-75
2022/07/10 07:10:17;;;;;;;1.27;0.82;;;23.60;64.30;;;;;;4997889;28;20254;-74
2022/07/10 07:12:44;;;;;;;0.90;0.60;;;23.80;63.40;;;;;;4998216;28;20046;-76
2022/07/10 07:15:12;;;;;;;1.00;0.63;;;23.70;63.00;;;;;;5004966;28;22577;-74
2022/07/10 07:18:31;;;;;;;1.40;0.88;;;23.60;63.10;;;;;;4999860;28;20408;-75
2022/07/10 07:23:19;;;;;;;1.63;0.90;;;23.90;63.50;;;;;;5007698;28;20123;-75
2022/07/10 07:25:46;;;;;;;1.65;0.73;;;23.90;64.10;;;;;;5007914;28;20079;-75
2022/07/10 07:28:19;;;;;;;1.77;0.88;;;24.10;62.30;;;;;;4984818;28;20060;-75
2022/07/10 07:30:47;;;;;;;1.55;0.82;;;24.10;62.00;;;;;;5002717;28;20099;-75
2022/07/10 07:33:15;;;;;;;3.70;0.88;;;24.30;61.20;;;;;;5011723;28;20054;-75
2022/07/10 07:35:42;;;;;;;0.77;0.60;;;24.00;59.70;;;;;;4996140;28;20053;-75
2022/07/10 07:38:10;;;;;;;1.15;0.50;;;24.20;60.00;;;;;;5011095;28;22370;-74
2022/07/10 07:40:37;;;;;;;0.98;0.60;;;24.20;58.00;;;;;;5018683;28;20057;-75
2022/07/10 07:43:04;;;;;;;0.90;0.50;;;24.30;58.50;;;;;;5020159;28;20064;-75
2022/07/10 07:45:31;;;;;;;0.95;0.47;;;24.30;57.70;;;;;;5008578;28;20150;-76
2022/07/10 07:47:59;;;;;;;1.10;0.50;;;24.10;57.90;;;;;;4985801;28;20083;-76
2022/07/10 07:50:36;;;;;;;0.80;0.40;;;24.30;58.20;;;;;;4964839;28;20053;-75
2022/07/10 07:53:05;;;;;;;0.60;0.30;;;24.20;58.00;;;;;;4979950;28;21039;-75
2022/07/10 07:55:33;;;;;;;2.83;0.40;;;24.30;56.50;;;;;;4987141;28;20083;-76
2022/07/10 07:58:02;;;;;;;3.33;0.60;;;24.30;57.50;;;;;;4985451;28;20098;-76
2022/07/10 08:00:30;;;;;;;0.52;0.30;;;24.40;58.20;;;;;;4975767;28;20175;-76
2022/07/10 08:03:00;;;;;;;2.17;0.40;;;24.70;58.20;;;;;;4961959;28;20046;-77
2022/07/10 08:05:28;;;;;;;0.52;0.30;;;24.70;57.20;;;;;;4982109;28;20060;-76
2022/07/10 08:07:58;;;;;;;1.67;0.30;;;24.20;58.30;;;;;;4981035;28;20049;-76
2022/07/10 08:10:27;;;;;;;0.65;0.30;;;24.40;58.10;;;;;;4975981;28;20057;-75
2022/07/10 08:12:54;;;;;;;0.95;0.40;;;24.80;58.50;;;;;;4978072;28;21742;-76
2022/07/10 08:15:22;;;;;;;0.88;0.40;;;24.80;57.60;;;;;;4978576;28;20053;-75
2022/07/10 08:17:51;;;;;;;0.80;0.40;;;24.60;57.60;;;;;;4985271;28;20507;-76
2022/07/10 08:20:18;;;;;;;0.68;0.20;;;24.80;57.30;;;;;;4978104;28;20127;-75
2022/07/10 08:22:48;;;;;;;1.10;0.30;;;25.10;57.60;;;;;;4977520;28;20045;-76
2022/07/10 08:25:19;;;;;;;0.50;0.38;;;25.10;56.60;;;;;;4993716;28;21508;-76
2022/07/10 08:27:46;;;;;;;0.60;0.20;;;25.20;55.10;;;;;;4984515;28;20187;-76
2022/07/10 08:30:13;;;;;;;0.80;0.30;;;25.00;54.30;;;;;;4987471;28;20053;-77
2022/07/10 08:32:41;;;;;;;1.10;0.30;;;24.70;55.80;;;;;;4981567;28;20049;-76
2022/07/10 08:35:09;;;;;;;0.40;0.20;;;24.30;55.30;;;;;;4989196;28;20067;-77
2022/07/10 08:37:46;;;;;;;2.25;0.35;;;23.80;56.20;;;;;;4986023;28;20092;-76
2022/07/10 08:40:15;;;;;;;3.47;0.28;;;24.20;55.80;;;;;;4982853;28;20068;-75
2022/07/10 08:42:44;;;;;;;0.60;0.28;;;23.80;55.40;;;;;;4973457;28;20096;-76
2022/07/10 08:45:13;;;;;;;1.30;0.32;;;23.50;56.20;;;;;;4995402;28;20295;-76
2022/07/10 08:47:41;;;;;;;0.50;0.30;;;24.10;56.20;;;;;;4958065;28;20064;-76
2022/07/10 08:50:21;;;;;;;1.65;0.20;;;24.60;55.80;;;;;;4988431;28;20083;-76
2022/07/10 08:53:00;;;;;;;0.75;0.30;;;24.90;55.40;;;;;;4984142;28;20060;-75
2022/07/10 08:55:27;;;;;;;1.63;0.40;;;24.80;55.60;;;;;;4966302;28;20172;-76
2022/07/10 08:57:55;;;;;;;1.73;0.30;;;24.90;55.60;;;;;;4978170;28;22080;-76
2022/07/10 09:00:24;;;;;;;1.00;0.30;;;25.00;55.30;;;;;;4967047;28;21053;-75
2022/07/10 09:02:53;;;;;;;0.63;0.22;;;25.30;54.70;;;;;;4972343;28;20045;-76
2022/07/10 09:05:20;;;;;;;2.90;0.20;;;25.30;53.40;;;;;;4989995;28;20881;-75
2022/07/10 09:07:48;;;;;;;2.30;0.25;;;24.60;53.90;;;;;;4983226;28;20048;-77
2022/07/10 09:10:15;;;;;;;1.30;0.30;;;24.40;53.20;;;;;;4967882;28;20138;-75
2022/07/10 09:12:53;;;;;;;0.68;0.35;;;24.10;53.90;;;;;;4995436;28;22129;-76
2022/07/10 09:15:22;;;;;;;0.65;0.30;;;23.90;55.30;;;;;;4981139;28;20061;-75
2022/07/10 09:17:51;;;;;;;4.00;0.90;;;23.90;56.20;;;;;;4982632;28;20049;-75
2022/07/10 09:20:36;;;;;;;1.25;0.30;;;23.70;56.00;;;;;;4983424;28;20060;-76
2022/07/10 09:23:18;;;;;;;0.82;0.32;;;23.80;55.10;;;;;;4990697;28;22043;-76
2022/07/10 09:25:47;;;;;;;2.95;0.40;;;24.10;56.10;;;;;;4985695;28;20059;-76
2022/07/10 09:28:18;;;;;;;2.25;0.30;;;23.60;57.00;;;;;;4988664;28;20294;-76
2022/07/10 09:30:46;;;;;;;1.75;0.40;;;23.40;57.80;;;;;;4984573;28;20659;-76
2022/07/10 09:33:31;;;;;;;3.15;0.40;;;23.20;57.90;;;;;;4982530;28;20049;-76
2022/07/10 09:36:05;;;;;;;0.82;0.30;;;23.90;56.60;;;;;;4961655;28;20957;-76
2022/07/10 09:38:46;;;;;;;3.70;0.20;;;24.40;55.40;;;;;;4979205;28;22222;-76
2022/07/10 09:41:22;;;;;;;1.33;0.22;;;24.70;53.60;;;;;;4967630;28;20527;-76
2022/07/10 09:44:11;;;;;;;1.40;0.52;;;24.80;54.60;;;;;;4979620;28;20053;-75
2022/07/10 09:46:42;;;;;;;0.80;0.32;;;25.30;54.40;;;;;;4967422;28;20095;-75
2022/07/10 09:49:12;;;;;;;1.15;0.30;;;25.00;54.20;;;;;;4966758;28;20260;-76
2022/07/10 09:51:44;;;;;;;1.83;0.40;;;24.30;55.10;;;;;;4983881;28;20453;-75
2022/07/10 09:54:15;;;;;;;1.30;0.40;;;23.70;55.70;;;;;;4979305;28;20656;-74
2022/07/10 09:56:52;;;;;;;2.03;0.30;;;23.60;57.40;;;;;;4966932;28;20050;-75
2022/07/10 09:59:20;;;;;;;0.85;0.28;;;24.20;57.10;;;;;;4983530;28;20055;-76
2022/07/10 10:01:48;;;;;;;2.88;0.30;;;24.60;56.10;;;;;;4999077;28;20048;-76
2022/07/10 10:04:18;;;;;;;0.82;0.40;;;24.50;55.40;;;;;;4985670;28;20665;-76
2022/07/10 10:06:49;;;;;;;1.42;0.38;;;24.80;54.50;;;;;;4980912;28;20413;-76
2022/07/10 10:09:38;;;;;;;6.45;0.40;;;24.90;53.90;;;;;;5000660;28;20057;-75
2022/07/10 10:12:12;;;;;;;0.55;0.20;;;24.70;53.50;;;;;;4982681;28;20061;-76
2022/07/10 10:14:40;;;;;;;2.45;0.30;;;24.60;53.80;;;;;;4982957;28;20458;-75
2022/07/10 10:17:08;;;;;;;0.70;0.20;;;24.60;54.30;;;;;;4976148;28;20052;-75
2022/07/10 10:22:25;;;;;;;2.22;0.73;;;23.90;55.00;;;;;;4988850;28;20054;-76
2022/07/10 10:24:54;;;;;;;0.68;0.20;;;24.20;53.40;;;;;;4973732;28;20505;-76
2022/07/10 10:27:21;;;;;;;0.40;0.20;;;24.30;53.00;;;;;;4986683;28;20049;-76
2022/07/10 10:29:50;;;;;;;4.50;0.43;;;24.10;54.20;;;;;;4978666;28;20054;-74
2022/07/10 10:32:17;;;;;;;0.80;0.38;;;24.50;55.30;;;;;;4997218;28;20057;-76
2022/07/10 10:34:58;;;;;;;1.38;0.20;;;24.20;55.10;;;;;;4967933;28;21981;-76
2022/07/10 10:37:50;;;;;;;1.88;0.30;;;23.80;54.00;;;;;;4980944;28;20053;-76
2022/07/10 10:40:34;;;;;;;1.30;0.20;;;24.30;54.30;;;;;;4986596;28;22127;-75
2022/07/10 10:43:21;;;;;;;0.70;0.45;;;24.40;54.60;;;;;;4981859;28;20961;-76
2022/07/10 10:45:49;;;;;;;1.65;0.30;;;24.60;54.40;;;;;;5002940;28;20065;-75
2022/07/10 10:48:17;;;;;;;0.73;0.20;;;24.90;53.30;;;;;;4969652;28;20554;-75
2022/07/10 10:51:04;;;;;;;0.40;0.10;;;25.00;53.70;;;;;;4958906;28;20127;-75
2022/07/10 10:53:31;;;;;;;0.45;0.20;;;24.90;52.10;;;;;;5001115;28;20049;-75
2022/07/10 10:56:05;;;;;;;0.43;0.10;;;24.70;52.20;;;;;;4973532;28;20053;-76
2022/07/10 10:58:39;;;;;;;5.18;0.40;;;25.00;52.30;;;;;;4979395;28;20050;-75
2022/07/10 11:01:20;;;;;;;0.55;0.10;;;25.00;51.00;;;;;;4967374;28;20060;-77
2022/07/10 11:04:08;;;;;;;1.23;0.10;;;25.20;52.20;;;;;;4977478;28;21181;-76
2022/07/10 11:06:46;;;;;;;1.55;0.10;;;25.10;49.90;;;;;;4978714;28;20378;-75
2022/07/10 11:09:24;;;;;;;2.55;0.20;;;24.90;50.00;;;;;;4998332;28;21091;-76
2022/07/10 11:11:59;;;;;;;1.55;0.10;;;25.20;51.10;;;;;;4985943;28;20527;-75
2022/07/10 11:14:28;;;;;;;1.30;0.20;;;25.20;51.20;;;;;;4979424;28;22065;-77
2022/07/10 11:16:56;;;;;;;1.20;0.20;;;25.10;50.50;;;;;;4982547;28;20045;-75
2022/07/10 11:19:25;;;;;;;2.00;0.20;;;25.20;49.70;;;;;;4980592;28;20040;-74
2022/07/10 11:22:21;;;;;;;1.30;0.10;;;25.40;49.30;;;;;;4982499;28;20061;-74
2022/07/10 11:25:04;;;;;;;0.80;0.10;;;25.20;49.80;;;;;;4967058;28;20045;-74
2022/07/10 11:27:40;;;;;;;0.73;0.10;;;25.10;49.80;;;;;;4980597;28;20175;-74
2022/07/10 11:30:07;;;;;;;4.68;0.10;;;25.30;49.10;;;;;;4980759;28;22192;-74
2022/07/10 11:32:34;;;;;;;1.80;0.20;;;25.40;48.60;;;;;;4979507;28;20068;-76
2022/07/10 11:35:01;;;;;;;4.55;0.50;;;25.40;48.40;;;;;;4964007;28;20060;-75
2022/07/10 11:37:30;;;;;;;2.28;0.20;;;25.10;49.20;;;;;;4997050;28;20041;-78
2022/07/10 11:40:13;;;;;;;2.42;0.30;;;24.90;48.90;;;;;;4998044;28;20049;-75
2022/07/10 11:42:54;;;;;;;0.47;0.10;;;24.70;48.10;;;;;;4977727;28;21160;-74
2022/07/10 11:45:27;;;;;;;2.07;0.20;;;24.60;48.30;;;;;;4980527;28;20048;-74
2022/07/10 11:47:55;;;;;;;1.15;0.30;;;24.30;49.70;;;;;;4979187;28;20937;-74
2022/07/10 11:50:23;;;;;;;1.73;0.10;;;24.40;50.90;;;;;;4982467;28;20678;-76
2022/07/10 11:52:53;;;;;;;4.68;0.30;;;25.10;50.70;;;;;;4982587;28;20049;-74
2022/07/10 11:55:26;;;;;;;5.32;0.50;;;25.10;50.30;;;;;;4991861;28;20829;-75
2022/07/10 11:57:53;;;;;;;2.47;0.20;;;24.80;50.50;;;;;;4958609;28;20060;-75
2022/07/10 12:00:25;;;;;;;1.80;0.20;;;24.90;49.20;;;;;;4968006;28;20037;-76
2022/07/10 12:02:53;;;;;;;2.78;0.30;;;25.10;49.30;;;;;;4983558;28;20099;-75
2022/07/10 12:05:38;;;;;;;18.77;1.65;;;25.00;49.60;;;;;;4993309;28;20041;-75
2022/07/10 12:08:05;;;;;;;17.30;1.00;;;25.30;50.40;;;;;;4981706;28;22059;-76
2022/07/10 12:10:34;;;;;;;14.32;0.70;;;24.70;50.80;;;;;;4979830;28;20824;-75
2022/07/10 12:13:13;;;;;;;12.07;1.00;;;24.30;51.70;;;;;;4967641;28;23032;-75
2022/07/10 12:15:45;;;;;;;3.80;0.20;;;24.20;52.70;;;;;;4976182;28;20136;-76
2022/07/10 12:18:21;;;;;;;6.07;0.30;;;24.40;52.20;;;;;;4996184;28;20045;-74
2022/07/10 12:20:52;;;;;;;7.10;0.30;;;24.40;51.10;;;;;;4986067;28;20728;-75
2022/07/10 12:23:22;;;;;;;12.87;0.40;;;24.60;50.30;;;;;;4971167;28;20052;-75
2022/07/10 12:25:50;;;;;;;3.40;0.38;;;24.20;50.30;;;;;;4985443;28;20051;-75
2022/07/10 12:28:18;;;;;;;3.13;0.28;;;24.10;50.00;;;;;;5001221;28;20053;-75
2022/07/10 12:30:46;;;;;;;4.05;0.20;;;23.90;50.10;;;;;;4969688;28;20420;-75
2022/07/10 12:33:20;;;;;;;0.80;0.40;;;24.00;50.40;;;;;;4984897;28;20213;-75
2022/07/10 12:35:50;;;;;;;3.85;0.20;;;24.10;50.60;;;;;;4990861;28;20589;-76
2022/07/10 12:38:23;;;;;;;0.98;0.20;;;24.20;50.90;;;;;;4974572;28;20060;-75
2022/07/10 12:40:51;;;;;;;0.88;0.10;;;24.10;51.00;;;;;;4989789;28;20038;-75
2022/07/10 12:43:29;;;;;;;5.68;0.20;;;24.30;51.00;;;;;;4972084;28;20087;-76
2022/07/10 12:46:19;;;;;;;0.52;0.10;;;24.60;51.20;;;;;;4985453;28;20045;-76
2022/07/10 12:49:08;;;;;;;3.22;0.17;;;24.40;50.20;;;;;;4985324;28;20037;-75
2022/07/10 12:51:45;;;;;;;3.55;0.20;;;24.30;50.30;;;;;;4955907;28;20420;-76
2022/07/10 12:54:34;;;;;;;7.75;0.20;;;24.80;50.20;;;;;;4971718;28;20202;-75
2022/07/10 12:57:04;;;;;;;9.13;0.50;;;25.00;48.90;;;;;;4990617;28;20049;-75
2022/07/10 12:59:36;;;;;;;2.33;0.10;;;24.70;48.90;;;;;;4982445;28;20365;-74
2022/07/10 13:02:20;;;;;;;1.25;0.10;;;24.60;49.40;;;;;;4984863;28;20046;-75
2022/07/10 13:04:56;;;;;;;2.05;0.20;;;24.60;49.70;;;;;;4986002;28;20078;-74